Wethersfield, Connecticut
Current Conditions -  °F | °C
As of 6:53 PM on Monday 20 Oct 2014 (Local Time) from KHFD Reporting Station
Clear Clear  
Wind Chill: 50°   Ceiling: Unl
Heat Index: 50°   Visibility: 10mi
Dew Point: 41°   Wind: 3mph
Humidity: 71%   Direction: 170°S
Pressure: 29.98"   Gusts: NA
Location:  41.71°N, 72.66°W
Report Text: KHFD 202253Z 17003KT 10SM CLR 10/05 A2998 RMK AO2 SLP153 T01000050 $
Loading
Personal Weather Stations






























Interactive Weather Map
Tropical Storm Tracking
New forecast layout! Learn more

10-Day Weather Forecast

Advertisements
Track Severe Weather on mobile